createdAt,value
2023-03-13T00:00:05.164Z,67.12
2023-03-13T00:00:55.015Z,66.38
2023-03-13T00:01:41.097Z,68.76
2023-03-13T00:02:20.941Z,68.90
2023-03-13T00:03:55.480Z,70.26
2023-03-13T00:05:22.201Z,67.99
2023-03-13T00:06:01.425Z,67.87
2023-03-13T00:06:43.330Z,68.00
2023-03-13T00:07:23.692Z,68.72
2023-03-13T00:08:43.319Z,68.17
2023-03-13T00:09:23.566Z,68.20
2023-03-13T00:10:04.866Z,68.13
2023-03-13T00:11:22.633Z,67.91
2023-03-13T00:12:59.027Z,67.18
2023-03-13T00:13:40.074Z,66.95
2023-03-13T00:14:23.045Z,67.13
2023-03-13T00:15:03.274Z,67.72
2023-03-13T00:15:41.976Z,68.00
2023-03-13T00:16:29.626Z,69.99
2023-03-13T00:17:19.105Z,68.52
2023-03-13T00:17:58.282Z,69.24
2023-03-13T00:18:39.081Z,68.32
2023-03-13T00:19:17.858Z,69.49
2023-03-13T00:20:00.178Z,68.55
2023-03-13T00:20:39.656Z,67.41
2023-03-13T00:21:28.177Z,67.30
2023-03-13T00:22:08.228Z,67.45
2023-03-13T00:22:48.010Z,67.90
2023-03-13T00:23:30.787Z,67.21
2023-03-13T00:25:01.315Z,66.72
2023-03-13T00:26:29.116Z,68.74
2023-03-13T00:27:18.083Z,67.88
2023-03-13T00:28:07.047Z,67.05
2023-03-13T00:28:54.097Z,69.21
2023-03-13T00:29:41.124Z,68.88
2023-03-13T00:30:21.303Z,67.77
2023-03-13T00:31:01.858Z,67.59
2023-03-13T00:31:42.507Z,66.93
2023-03-13T00:32:48.805Z,67.38
2023-03-13T00:34:24.005Z,67.06
2023-03-13T00:35:28.114Z,66.54
2023-03-13T00:36:06.815Z,67.11
2023-03-13T00:36:47.353Z,66.11
2023-03-13T00:38:05.316Z,65.82
2023-03-13T00:38:45.344Z,65.45
2023-03-13T00:39:32.097Z,65.89
2023-03-13T00:40:11.823Z,65.88
2023-03-13T00:41:04.772Z,65.82
2023-03-13T00:42:33.354Z,65.74
2023-03-13T00:43:36.946Z,69.91
2023-03-13T00:44:54.239Z,69.61
2023-03-13T00:47:03.954Z,67.56
2023-03-13T00:47:51.116Z,66.39
2023-03-13T00:48:31.472Z,66.42
2023-03-13T00:49:11.305Z,66.24
2023-03-13T00:49:58.140Z,66.31
2023-03-13T00:50:37.191Z,67.22
2023-03-13T00:51:27.025Z,66.47
2023-03-13T00:52:07.225Z,65.96
2023-03-13T00:52:47.210Z,65.98
2023-03-13T00:53:27.420Z,68.81
2023-03-13T00:54:07.803Z,68.23
2023-03-13T00:54:48.016Z,66.95
2023-03-13T00:55:30.211Z,66.79
2023-03-13T00:56:14.044Z,66.32
2023-03-13T00:56:56.180Z,67.09
2023-03-13T00:57:37.650Z,67.33
2023-03-13T00:59:16.960Z,67.76
2023-03-13T01:00:06.977Z,67.46
2023-03-13T01:00:46.450Z,66.54
2023-03-13T01:01:28.045Z,67.29
2023-03-13T01:02:47.441Z,70.21
2023-03-13T01:03:29.307Z,70.44
2023-03-13T01:04:11.884Z,69.48
2023-03-13T01:05:37.557Z,67.30
2023-03-13T01:06:18.992Z,67.47
2023-03-13T01:06:58.211Z,67.93
2023-03-13T01:07:37.299Z,67.28
2023-03-13T01:08:16.285Z,68.00
2023-03-13T01:09:45.008Z,67.67
2023-03-13T01:11:17.207Z,66.25
2023-03-13T01:12:34.312Z,69.68
2023-03-13T01:13:37.870Z,69.01
2023-03-13T01:16:15.156Z,68.03
2023-03-13T01:16:53.970Z,67.96
2023-03-13T01:17:40.080Z,68.07
2023-03-13T01:18:19.464Z,68.79
2023-03-13T01:19:12.911Z,69.69
2023-03-13T01:19:51.858Z,70.40
2023-03-13T01:20:32.475Z,71.28
2023-03-13T01:21:53.217Z,69.08
2023-03-13T01:23:09.945Z,69.04
2023-03-13T01:23:50.278Z,68.71
2023-03-13T01:25:36.613Z,69.98
2023-03-13T01:26:56.205Z,70.36
2023-03-13T01:27:36.444Z,70.17
2023-03-13T01:29:33.208Z,68.33
2023-03-13T01:30:12.612Z,67.95
2023-03-13T01:31:36.189Z,68.16
2023-03-13T01:32:23.219Z,68.11
2023-03-13T01:33:02.726Z,68.23
2023-03-13T01:33:46.623Z,67.00
2023-03-13T01:34:26.432Z,67.85
2023-03-13T01:35:06.462Z,67.94
2023-03-13T01:35:49.835Z,67.80
2023-03-13T01:37:08.289Z,68.37
2023-03-13T01:38:26.950Z,68.59
2023-03-13T01:39:44.480Z,68.23
2023-03-13T01:42:19.085Z,67.04
2023-03-13T01:43:00.362Z,66.29
2023-03-13T01:45:00.356Z,66.87
2023-03-13T01:46:10.290Z,66.91
2023-03-13T01:46:53.631Z,67.20
2023-03-13T01:47:33.880Z,66.69
2023-03-13T01:48:14.226Z,68.23
2023-03-13T01:49:15.034Z,70.16
2023-03-13T01:49:54.985Z,69.12
2023-03-13T01:50:34.437Z,68.89
2023-03-13T01:51:27.953Z,67.55
2023-03-13T01:53:06.644Z,67.92
2023-03-13T01:53:49.029Z,68.44
2023-03-13T01:54:34.713Z,67.79
2023-03-13T01:55:18.235Z,66.66
2023-03-13T01:56:01.222Z,67.12
2023-03-13T01:56:53.226Z,68.36
2023-03-13T01:57:41.184Z,67.74
2023-03-13T01:58:21.854Z,67.61
2023-03-13T01:59:02.658Z,67.12
2023-03-13T02:00:08.069Z,66.31
2023-03-13T02:00:50.370Z,66.24
2023-03-13T02:01:55.717Z,66.29
2023-03-13T02:05:20.181Z,65.13
2023-03-13T02:05:59.982Z,66.62
2023-03-13T02:06:51.312Z,66.83
2023-03-13T02:08:11.899Z,66.23
2023-03-13T02:08:50.859Z,66.23
2023-03-13T02:10:59.341Z,65.45
2023-03-13T02:12:10.670Z,64.23
2023-03-13T02:14:04.902Z,65.45
2023-03-13T02:14:41.400Z,65.56
2023-03-13T02:16:03.171Z,66.63
2023-03-13T02:16:42.865Z,67.16
2023-03-13T02:17:27.768Z,66.48
2023-03-13T02:19:23.900Z,64.97
2023-03-13T02:20:07.261Z,65.16
2023-03-13T02:20:54.133Z,64.62
2023-03-13T02:21:57.260Z,64.36
2023-03-13T02:22:49.877Z,66.68
2023-03-13T02:27:16.007Z,65.62
2023-03-13T02:28:18.869Z,65.25
2023-03-13T02:31:51.396Z,66.46
2023-03-13T02:34:43.250Z,69.21
2023-03-13T02:35:27.667Z,67.49
2023-03-13T02:37:13.073Z,67.50
2023-03-13T02:38:34.017Z,67.59
2023-03-13T02:39:19.218Z,66.93
2023-03-13T02:40:03.949Z,66.85
2023-03-13T02:41:08.803Z,68.17
2023-03-13T02:43:49.652Z,67.26
2023-03-13T02:44:54.167Z,67.04
2023-03-13T02:45:33.907Z,67.86
2023-03-13T02:46:20.156Z,66.77
2023-03-13T02:48:56.246Z,68.09
2023-03-13T02:51:05.157Z,67.25
2023-03-13T02:52:26.648Z,68.07
2023-03-13T02:56:12.563Z,67.61
2023-03-13T02:58:11.829Z,67.77
2023-03-13T02:59:57.059Z,67.66
2023-03-13T03:01:19.391Z,69.05
2023-03-13T03:01:59.051Z,68.12
2023-03-13T03:02:31.005Z,68.36
2023-03-13T03:03:02.892Z,67.85
2023-03-13T03:03:37.379Z,68.57
2023-03-13T03:04:58.231Z,69.04
2023-03-13T03:07:32.964Z,67.44
2023-03-13T03:08:04.693Z,67.51
2023-03-13T03:09:25.546Z,66.54
2023-03-13T03:13:40.829Z,65.72
2023-03-13T03:14:44.871Z,65.58
2023-03-13T03:15:27.048Z,66.98
2023-03-13T03:16:31.001Z,65.83
2023-03-13T03:20:50.608Z,66.98
2023-03-13T03:21:39.938Z,67.20
2023-03-13T03:22:11.663Z,67.13
2023-03-13T03:22:43.378Z,68.72
2023-03-13T03:23:15.267Z,67.64
2023-03-13T03:23:47.350Z,67.46
2023-03-13T03:26:26.887Z,67.58
2023-03-13T03:27:07.601Z,69.57
2023-03-13T03:28:28.969Z,69.64
2023-03-13T03:30:13.223Z,69.78
2023-03-13T03:32:06.006Z,69.42
2023-03-13T03:32:38.533Z,69.62
2023-03-13T03:34:30.956Z,69.43
2023-03-13T03:35:03.004Z,69.27
2023-03-13T03:35:38.626Z,69.68
2023-03-13T03:38:20.916Z,69.06
2023-03-13T03:38:53.133Z,68.83
2023-03-13T03:39:25.320Z,68.56
2023-03-13T03:41:37.891Z,69.72
2023-03-13T03:42:42.537Z,69.49
2023-03-13T03:44:04.552Z,69.87
2023-03-13T03:45:08.901Z,69.63
2023-03-13T03:45:48.187Z,68.91
2023-03-13T03:47:20.035Z,68.25
2023-03-13T03:48:24.085Z,68.05
2023-03-13T03:52:13.918Z,68.31
2023-03-13T03:52:45.812Z,68.26
2023-03-13T03:53:17.593Z,68.38
2023-03-13T03:55:14.441Z,67.87
2023-03-13T03:55:46.358Z,68.41
2023-03-13T03:56:18.138Z,68.50
2023-03-13T03:56:50.126Z,69.99
2023-03-13T03:58:23.720Z,70.34
2023-03-13T03:59:30.198Z,69.95
2023-03-13T04:03:15.737Z,69.04
2023-03-13T04:05:17.085Z,71.17
2023-03-13T04:06:10.230Z,71.09
2023-03-13T04:06:52.355Z,70.87
2023-03-13T04:07:32.365Z,69.62
2023-03-13T04:08:24.225Z,70.21
2023-03-13T04:09:06.475Z,70.51
2023-03-13T04:09:47.374Z,69.99
2023-03-13T04:10:51.083Z,70.28
2023-03-13T04:12:02.822Z,69.40
2023-03-13T04:12:34.854Z,69.90
2023-03-13T04:13:06.675Z,69.64
2023-03-13T04:13:38.427Z,69.88
2023-03-13T04:14:10.396Z,69.85
2023-03-13T04:14:42.265Z,70.30
2023-03-13T04:15:14.024Z,71.12
2023-03-13T04:17:37.003Z,69.67
2023-03-13T04:19:00.442Z,70.17
2023-03-13T04:21:50.266Z,70.72
2023-03-13T04:23:51.682Z,71.95
2023-03-13T04:27:00.200Z,71.14
2023-03-13T04:27:42.471Z,70.72
2023-03-13T04:28:46.026Z,70.92
2023-03-13T04:29:23.431Z,70.59
2023-03-13T04:29:55.191Z,70.27
2023-03-13T04:30:27.167Z,70.79
2023-03-13T04:31:06.378Z,70.18
2023-03-13T04:32:09.945Z,70.15
2023-03-13T04:34:40.273Z,70.38
2023-03-13T04:35:12.289Z,70.47
2023-03-13T04:35:51.376Z,70.37
2023-03-13T04:36:34.466Z,71.08
2023-03-13T04:38:13.661Z,71.00
2023-03-13T04:39:25.727Z,71.04
2023-03-13T04:40:06.128Z,70.68
2023-03-13T04:40:49.081Z,71.16
2023-03-13T04:41:38.368Z,71.44
2023-03-13T04:42:12.305Z,71.11
2023-03-13T04:42:59.262Z,71.38
2023-03-13T04:43:31.088Z,71.61
2023-03-13T04:44:03.020Z,71.48
2023-03-13T04:44:34.843Z,71.70
2023-03-13T04:45:07.598Z,71.50
2023-03-13T04:45:39.333Z,72.42
2023-03-13T04:46:11.085Z,72.93
2023-03-13T04:46:42.962Z,72.64
2023-03-13T04:47:15.439Z,73.37
2023-03-13T04:47:47.322Z,73.00
2023-03-13T04:50:51.272Z,73.48
2023-03-13T04:53:07.467Z,74.16
2023-03-13T04:54:27.706Z,74.37
2023-03-13T04:57:49.480Z,74.07
2023-03-13T04:58:30.401Z,73.79
2023-03-13T05:00:21.091Z,74.89
2023-03-13T05:00:53.981Z,74.93
2023-03-13T05:01:25.833Z,74.87
2023-03-13T05:01:57.670Z,74.93
2023-03-13T05:02:29.407Z,74.90
2023-03-13T05:03:01.391Z,73.85
2023-03-13T05:04:32.801Z,75.40
2023-03-13T05:05:12.210Z,75.08
2023-03-13T05:05:53.680Z,74.78
2023-03-13T05:06:57.349Z,74.58
2023-03-13T05:07:46.249Z,75.61
2023-03-13T05:08:42.256Z,74.92
2023-03-13T05:09:15.380Z,75.11
2023-03-13T05:09:47.263Z,75.21
2023-03-13T05:10:19.133Z,75.08
2023-03-13T05:10:50.878Z,74.49
2023-03-13T05:11:22.698Z,74.98
2023-03-13T05:15:23.006Z,74.60
2023-03-13T05:16:19.677Z,75.23
2023-03-13T05:19:40.707Z,73.67
2023-03-13T05:20:24.452Z,73.89
2023-03-13T05:21:35.417Z,74.43
2023-03-13T05:22:27.514Z,73.84
2023-03-13T05:23:09.463Z,73.75
2023-03-13T05:23:41.325Z,74.23
2023-03-13T05:26:16.360Z,73.88
2023-03-13T05:27:45.985Z,74.38
2023-03-13T05:28:26.763Z,74.20
2023-03-13T05:29:09.463Z,74.79
2023-03-13T05:29:42.396Z,75.37
2023-03-13T05:30:14.315Z,74.90
2023-03-13T05:30:46.356Z,74.80
2023-03-13T05:31:26.176Z,74.99
2023-03-13T05:32:05.636Z,75.04
2023-03-13T05:32:47.431Z,73.96
2023-03-13T05:33:28.621Z,74.19
2023-03-13T05:37:41.589Z,73.37
2023-03-13T05:38:54.954Z,73.83
2023-03-13T05:39:34.385Z,73.74
2023-03-13T05:40:06.758Z,73.30
2023-03-13T05:40:38.561Z,73.43
2023-03-13T05:41:10.322Z,74.10
2023-03-13T05:41:42.148Z,73.92
2023-03-13T05:42:13.875Z,73.88
2023-03-13T05:42:46.010Z,73.21
2023-03-13T05:43:25.998Z,73.30
2023-03-13T05:44:08.715Z,73.35
2023-03-13T05:44:58.368Z,73.07
2023-03-13T05:46:02.125Z,72.95
2023-03-13T05:47:44.057Z,73.70
2023-03-13T05:50:56.220Z,74.95
2023-03-13T05:51:45.192Z,75.29
2023-03-13T05:58:18.987Z,74.75
2023-03-13T06:00:33.661Z,74.26
2023-03-13T06:01:15.331Z,74.61
2023-03-13T06:01:47.110Z,74.33
2023-03-13T06:02:18.850Z,74.10
2023-03-13T06:02:50.598Z,74.02
2023-03-13T06:03:25.966Z,74.87
2023-03-13T06:05:24.910Z,74.27
2023-03-13T06:06:29.206Z,73.67
2023-03-13T06:12:20.573Z,73.21
2023-03-13T06:12:54.403Z,73.42
2023-03-13T06:13:26.297Z,73.61
2023-03-13T06:13:58.193Z,72.40
2023-03-13T06:14:29.903Z,71.86
2023-03-13T06:15:01.976Z,72.63
2023-03-13T06:15:33.711Z,73.64
2023-03-13T06:16:06.059Z,72.30
2023-03-13T06:16:37.979Z,71.92
2023-03-13T06:17:10.124Z,71.96
2023-03-13T06:17:42.124Z,72.27
2023-03-13T06:18:14.101Z,71.55
2023-03-13T06:18:46.774Z,72.06
2023-03-13T06:19:19.051Z,71.90
2023-03-13T06:29:04.323Z,70.37
2023-03-13T06:31:30.147Z,70.20
2023-03-13T06:32:19.533Z,70.72
2023-03-13T06:34:41.240Z,70.36
2023-03-13T06:35:28.956Z,69.56
2023-03-13T06:36:02.196Z,69.44
2023-03-13T06:36:34.492Z,68.72
2023-03-13T06:37:06.262Z,68.69
2023-03-13T06:37:38.075Z,69.25
2023-03-13T06:38:11.199Z,68.94
2023-03-13T06:38:43.036Z,69.36
2023-03-13T06:40:04.189Z,69.78
2023-03-13T06:40:46.395Z,69.30
2023-03-13T06:46:56.172Z,67.27
2023-03-13T06:47:39.994Z,66.95
2023-03-13T06:51:27.183Z,65.27
2023-03-13T06:52:43.904Z,66.25
2023-03-13T06:54:54.331Z,65.98
2023-03-13T06:56:37.851Z,64.63
2023-03-13T06:57:17.864Z,67.32
2023-03-13T06:58:06.719Z,64.75
2023-03-13T06:58:49.705Z,63.37
2023-03-13T06:59:41.535Z,63.75
2023-03-13T07:01:48.485Z,64.86
2023-03-13T07:02:56.127Z,65.33
2023-03-13T07:04:00.026Z,64.09
2023-03-13T07:05:31.063Z,64.18
2023-03-13T07:06:35.546Z,64.65
2023-03-13T07:15:25.202Z,65.83
2023-03-13T07:16:21.506Z,64.68
2023-03-13T07:17:13.423Z,63.36
2023-03-13T07:19:33.425Z,61.37
2023-03-13T07:21:08.101Z,62.67
2023-03-13T07:21:57.423Z,60.08
2023-03-13T07:24:35.538Z,62.28
2023-03-13T07:25:27.545Z,61.02
2023-03-13T07:26:13.675Z,61.27
2023-03-13T07:27:30.038Z,62.97
2023-03-13T07:31:36.273Z,61.07
2023-03-13T07:32:08.347Z,62.20
2023-03-13T07:32:41.005Z,60.07
2023-03-13T07:35:18.972Z,62.06
2023-03-13T07:36:41.941Z,63.49
2023-03-13T07:37:48.540Z,62.99
2023-03-13T07:38:52.586Z,63.77
2023-03-13T07:40:11.277Z,61.32
2023-03-13T07:40:50.388Z,61.50
2023-03-13T07:41:30.400Z,62.54
2023-03-13T07:42:34.869Z,61.38
2023-03-13T07:43:14.156Z,61.31
2023-03-13T07:43:53.812Z,60.79
2023-03-13T07:46:13.165Z,63.78
2023-03-13T07:46:54.651Z,61.84
2023-03-13T07:47:36.310Z,61.12
2023-03-13T07:48:33.055Z,61.37
2023-03-13T07:50:00.013Z,61.18
2023-03-13T07:53:47.870Z,62.00
2023-03-13T07:54:39.001Z,60.72
2023-03-13T07:58:01.270Z,59.88
2023-03-13T07:58:50.109Z,60.79
2023-03-13T07:59:29.134Z,58.88
2023-03-13T08:00:16.700Z,59.27
2023-03-13T08:02:44.333Z,60.74
2023-03-13T08:03:32.445Z,60.43
2023-03-13T08:05:17.245Z,61.30
2023-03-13T08:06:37.613Z,59.82
2023-03-13T08:07:29.446Z,58.33
2023-03-13T08:08:33.291Z,60.79
2023-03-13T08:09:12.129Z,60.96
2023-03-13T08:09:51.750Z,58.77
2023-03-13T08:11:02.846Z,58.12
2023-03-13T08:13:03.797Z,57.67
2023-03-13T08:14:33.565Z,55.47
2023-03-13T08:15:28.918Z,57.60
2023-03-13T08:16:34.802Z,54.72
2023-03-13T08:18:39.754Z,55.30
2023-03-13T08:19:29.494Z,54.12
2023-03-13T08:20:32.689Z,51.54
2023-03-13T08:22:02.214Z,49.39
2023-03-13T08:22:48.452Z,49.80
2023-03-13T08:24:13.372Z,47.53
2023-03-13T08:25:02.982Z,47.87
2023-03-13T08:25:45.994Z,48.20
2023-03-13T08:26:33.264Z,48.65
2023-03-13T08:27:53.543Z,46.34
2023-03-13T08:28:37.256Z,47.45
2023-03-13T08:29:31.032Z,47.44
2023-03-13T08:30:13.199Z,47.48
2023-03-13T08:31:21.450Z,48.58
2023-03-13T08:32:52.317Z,48.30
2023-03-13T08:34:04.191Z,47.88
2023-03-13T08:34:56.423Z,48.09
2023-03-13T08:35:38.658Z,48.31
2023-03-13T08:36:24.736Z,49.75
2023-03-13T08:37:04.765Z,49.76
2023-03-13T08:37:44.562Z,49.52
2023-03-13T08:38:26.709Z,48.25
2023-03-13T08:39:18.155Z,46.79
2023-03-13T08:40:00.790Z,46.08
2023-03-13T08:40:51.412Z,46.53
2023-03-13T08:41:36.507Z,44.48
2023-03-13T08:42:41.078Z,42.89
2023-03-13T08:45:34.865Z,42.33
2023-03-13T08:46:45.502Z,43.33
2023-03-13T08:47:29.105Z,42.59
2023-03-13T08:48:59.186Z,42.82
2023-03-13T08:50:03.533Z,42.66
2023-03-13T08:52:11.557Z,44.32
2023-03-13T08:53:01.056Z,45.13
2023-03-13T08:54:28.448Z,43.96
2023-03-13T08:55:10.344Z,43.85
2023-03-13T08:56:30.204Z,43.77
2023-03-13T08:57:12.624Z,43.98
2023-03-13T08:58:01.544Z,43.94
2023-03-13T08:58:54.526Z,43.32
2023-03-13T08:59:34.671Z,42.99
2023-03-13T09:00:18.827Z,44.58
2023-03-13T09:01:07.957Z,43.88
2023-03-13T09:01:47.852Z,43.96
2023-03-13T09:02:30.646Z,43.82
2023-03-13T09:03:10.501Z,44.59
2023-03-13T09:03:53.068Z,43.83
2023-03-13T09:04:33.607Z,44.30
2023-03-13T09:05:14.974Z,43.72
2023-03-13T09:06:40.137Z,44.03
2023-03-13T09:07:44.233Z,45.01
2023-03-13T09:08:33.025Z,44.17
2023-03-13T09:11:30.445Z,43.63
2023-03-13T09:12:34.218Z,43.25
2023-03-13T09:17:15.370Z,45.09
2023-03-13T09:17:55.809Z,45.08
2023-03-13T09:18:44.225Z,44.62
2023-03-13T09:20:33.300Z,43.46
2023-03-13T09:21:53.624Z,44.13
2023-03-13T09:22:33.612Z,42.34
2023-03-13T09:23:23.105Z,43.24
2023-03-13T09:24:03.841Z,42.40
2023-03-13T09:24:53.487Z,41.28
2023-03-13T09:25:42.657Z,41.32
2023-03-13T09:27:54.325Z,43.01
2023-03-13T09:29:26.697Z,43.45
2023-03-13T09:30:18.449Z,42.40
2023-03-13T09:31:15.074Z,44.12
2023-03-13T09:31:57.493Z,43.60
2023-03-13T09:33:03.154Z,44.15
2023-03-13T09:33:43.070Z,44.35
2023-03-13T09:34:47.280Z,44.48
2023-03-13T09:36:56.675Z,42.45
2023-03-13T09:37:48.435Z,41.36
2023-03-13T09:38:32.094Z,42.22
2023-03-13T09:39:12.765Z,41.05
2023-03-13T09:40:04.755Z,40.17
2023-03-13T09:42:41.520Z,40.91
2023-03-13T09:45:49.820Z,39.68
2023-03-13T09:46:29.478Z,39.50
2023-03-13T09:47:22.772Z,39.55
2023-03-13T09:48:11.924Z,41.38
2023-03-13T09:48:57.569Z,39.65
2023-03-13T09:49:39.820Z,39.30
2023-03-13T09:50:32.429Z,39.16
2023-03-13T09:51:35.460Z,40.02
2023-03-13T09:52:26.715Z,39.20
2023-03-13T09:53:09.293Z,40.09
2023-03-13T09:54:02.256Z,38.46
2023-03-13T09:54:42.566Z,39.55
2023-03-13T09:56:41.073Z,39.02
2023-03-13T09:57:49.250Z,38.90
2023-03-13T09:58:42.743Z,38.58
2023-03-13T09:59:34.290Z,39.54
2023-03-13T10:00:41.490Z,40.24
2023-03-13T10:01:31.369Z,39.41
2023-03-13T10:02:36.121Z,40.06
2023-03-13T10:03:15.142Z,40.31
2023-03-13T10:04:07.767Z,38.97
2023-03-13T10:05:42.536Z,39.48
2023-03-13T10:06:24.996Z,40.22
2023-03-13T10:08:50.483Z,39.80
2023-03-13T10:09:54.177Z,41.15
2023-03-13T10:10:35.042Z,40.12
2023-03-13T10:14:06.609Z,41.63
2023-03-13T10:15:01.713Z,42.09
2023-03-13T10:15:42.806Z,43.35
2023-03-13T10:16:35.073Z,42.04
2023-03-13T10:17:34.832Z,42.22
2023-03-13T10:18:20.642Z,42.49
2023-03-13T10:19:14.212Z,42.23
2023-03-13T10:20:09.942Z,42.45
2023-03-13T10:20:59.886Z,42.12
2023-03-13T10:22:04.370Z,41.08
2023-03-13T10:22:49.129Z,42.03
2023-03-13T10:23:41.212Z,43.05
2023-03-13T10:24:35.620Z,41.49
2023-03-13T10:25:33.730Z,41.63
2023-03-13T10:26:20.155Z,41.65
2023-03-13T10:26:59.919Z,40.99
2023-03-13T10:29:21.271Z,40.20
2023-03-13T10:30:00.766Z,39.59
2023-03-13T10:31:18.873Z,39.14
2023-03-13T10:32:18.735Z,39.63
2023-03-13T10:33:38.622Z,39.50
2023-03-13T10:34:21.703Z,39.14
2023-03-13T10:35:04.295Z,39.19
2023-03-13T10:35:46.810Z,39.89
2023-03-13T10:38:12.268Z,39.69
2023-03-13T10:39:01.434Z,39.95
2023-03-13T10:41:50.052Z,40.49
2023-03-13T10:42:43.913Z,39.93
2023-03-13T10:43:29.699Z,40.39
2023-03-13T10:44:14.599Z,40.88
2023-03-13T10:45:06.360Z,40.59
2023-03-13T10:45:55.493Z,40.56
2023-03-13T10:46:40.393Z,39.69
2023-03-13T10:47:22.879Z,38.81
2023-03-13T10:48:18.896Z,39.11
2023-03-13T10:49:58.057Z,39.77
2023-03-13T10:51:02.572Z,40.14
2023-03-13T10:51:52.125Z,40.77
2023-03-13T10:52:56.530Z,39.81
2023-03-13T10:55:05.142Z,40.13
2023-03-13T10:56:20.234Z,40.30
2023-03-13T10:57:38.557Z,40.97
2023-03-13T10:58:31.738Z,41.26
2023-03-13T10:59:25.291Z,41.53
2023-03-13T11:00:28.938Z,40.09
2023-03-13T11:01:58.167Z,39.49
2023-03-13T11:03:05.686Z,40.20
2023-03-13T11:05:47.288Z,40.66
2023-03-13T11:06:35.242Z,40.03
2023-03-13T11:07:17.247Z,39.99
2023-03-13T11:07:58.871Z,40.51
2023-03-13T11:08:38.355Z,40.79
2023-03-13T11:09:21.333Z,40.64
2023-03-13T11:10:03.327Z,40.35
2023-03-13T11:11:00.868Z,41.00
2023-03-13T11:12:09.798Z,41.76
2023-03-13T11:13:43.666Z,40.47
2023-03-13T11:16:24.333Z,40.94
2023-03-13T11:17:39.925Z,41.06
2023-03-13T11:18:26.693Z,41.76
2023-03-13T11:19:27.145Z,41.74
2023-03-13T11:20:06.767Z,41.68
2023-03-13T11:20:49.284Z,42.35
2023-03-13T11:22:00.928Z,42.66
2023-03-13T11:22:43.280Z,41.31
2023-03-13T11:23:36.287Z,42.26
2023-03-13T11:26:16.311Z,42.65
2023-03-13T11:28:24.430Z,43.10
2023-03-13T11:29:21.368Z,40.81
2023-03-13T11:35:11.741Z,42.66
2023-03-13T11:36:48.874Z,42.67
2023-03-13T11:37:29.759Z,41.11
2023-03-13T11:38:52.376Z,41.76
2023-03-13T11:40:32.828Z,42.63
2023-03-13T11:41:26.160Z,41.98
2023-03-13T11:42:08.498Z,42.36
2023-03-13T11:43:17.808Z,42.31
2023-03-13T11:44:04.964Z,41.70
2023-03-13T11:45:02.555Z,42.43
2023-03-13T11:45:51.663Z,42.48
2023-03-13T11:46:44.656Z,41.98
2023-03-13T11:48:51.183Z,41.89
2023-03-13T11:51:05.177Z,42.66
2023-03-13T11:52:12.357Z,42.85
2023-03-13T11:53:07.306Z,41.85
2023-03-13T11:54:35.983Z,41.81
2023-03-13T11:55:39.885Z,42.34
2023-03-13T11:56:35.512Z,42.16
2023-03-13T11:58:06.395Z,42.65
2023-03-13T11:58:46.386Z,42.45
2023-03-13T11:59:41.602Z,42.91
2023-03-13T12:01:02.281Z,42.06
2023-03-13T12:02:15.491Z,42.24
2023-03-13T12:03:54.893Z,42.23
2023-03-13T12:05:07.547Z,42.33
2023-03-13T12:05:52.561Z,42.27
2023-03-13T12:06:44.441Z,42.64
2023-03-13T12:07:28.908Z,41.70
2023-03-13T12:08:32.183Z,41.97
2023-03-13T12:10:16.357Z,42.32
2023-03-13T12:13:02.876Z,42.40
2023-03-13T12:13:56.647Z,42.42
2023-03-13T12:14:41.828Z,42.62
2023-03-13T12:15:47.322Z,42.65
2023-03-13T12:16:56.148Z,43.13
2023-03-13T12:18:16.525Z,42.97
2023-03-13T12:18:58.975Z,43.19
2023-03-13T12:20:40.954Z,42.63
2023-03-13T12:21:29.713Z,42.83
2023-03-13T12:22:20.480Z,42.17
2023-03-13T12:24:12.231Z,42.61
2023-03-13T12:24:51.236Z,43.50
2023-03-13T12:26:07.440Z,43.11
2023-03-13T12:29:23.430Z,43.09
2023-03-13T12:32:44.696Z,42.31
2023-03-13T12:33:54.330Z,41.58
2023-03-13T12:34:59.460Z,43.02
2023-03-13T12:36:42.338Z,42.87
2023-03-13T12:38:02.159Z,42.52
2023-03-13T12:39:35.130Z,40.85
2023-03-13T12:40:28.660Z,41.53
2023-03-13T12:41:25.943Z,41.27
2023-03-13T12:42:33.322Z,42.44
2023-03-13T12:44:20.411Z,41.97
2023-03-13T12:47:09.590Z,41.16
2023-03-13T12:50:06.952Z,41.10
2023-03-13T12:52:05.244Z,40.14
2023-03-13T12:52:47.641Z,40.30
2023-03-13T12:54:40.367Z,41.08
2023-03-13T12:56:24.447Z,41.06
2023-03-13T12:57:16.318Z,40.81
2023-03-13T12:58:19.906Z,40.81
2023-03-13T12:59:23.945Z,39.83
2023-03-13T13:00:22.126Z,40.60
2023-03-13T13:01:07.767Z,39.70
2023-03-13T13:02:00.108Z,39.24
2023-03-13T13:02:40.522Z,39.61
2023-03-13T13:03:41.075Z,39.17
2023-03-13T13:04:41.737Z,38.82
2023-03-13T13:05:30.683Z,40.22
2023-03-13T13:06:55.881Z,41.19
2023-03-13T13:08:53.532Z,40.95
2023-03-13T13:09:34.111Z,41.30
2023-03-13T13:10:29.165Z,40.83
2023-03-13T13:11:50.757Z,40.85
2023-03-13T13:13:12.955Z,40.50
2023-03-13T13:16:21.386Z,41.03
2023-03-13T13:17:21.297Z,41.55
2023-03-13T13:18:25.313Z,40.62
2023-03-13T13:19:25.653Z,40.02
2023-03-13T13:20:27.104Z,41.21
2023-03-13T13:21:15.843Z,40.63
2023-03-13T13:22:33.666Z,40.74
2023-03-13T13:23:28.299Z,40.60
2023-03-13T13:24:48.992Z,40.72
2023-03-13T13:26:55.533Z,40.04
2023-03-13T13:27:43.441Z,40.45
2023-03-13T13:28:33.597Z,40.65
2023-03-13T13:30:33.673Z,40.54
2023-03-13T13:33:41.307Z,41.16
2023-03-13T13:37:25.323Z,40.91
2023-03-13T13:39:43.699Z,41.03
2023-03-13T13:41:09.865Z,42.12
2023-03-13T13:41:49.802Z,41.80
2023-03-13T13:42:42.261Z,42.52
2023-03-13T13:43:36.647Z,42.84
2023-03-13T13:44:25.079Z,41.94
2023-03-13T13:45:16.456Z,42.22
2023-03-13T13:45:57.402Z,41.82
2023-03-13T13:46:45.905Z,41.62
2023-03-13T13:48:21.765Z,41.93
2023-03-13T13:49:45.482Z,41.75
2023-03-13T13:52:07.182Z,41.41
2023-03-13T13:52:49.142Z,41.38
2023-03-13T13:53:50.787Z,42.09
2023-03-13T13:54:34.796Z,42.03
2023-03-13T13:55:40.610Z,42.71
2023-03-13T13:57:08.083Z,41.80
2023-03-13T13:58:14.016Z,41.57
2023-03-13T13:59:56.917Z,41.21
2023-03-13T14:01:41.241Z,40.90
2023-03-13T14:02:19.952Z,41.13
2023-03-13T14:03:00.821Z,41.44
2023-03-13T14:04:46.639Z,42.07
2023-03-13T14:05:29.795Z,41.77
2023-03-13T14:06:24.991Z,41.30
2023-03-13T14:07:06.797Z,42.01
2023-03-13T14:07:55.519Z,42.37
2023-03-13T14:08:42.429Z,41.85
2023-03-13T14:09:42.703Z,41.87
2023-03-13T14:11:21.714Z,41.76
2023-03-13T14:12:48.513Z,41.39
2023-03-13T14:13:30.893Z,41.88
2023-03-13T14:15:09.118Z,41.87
2023-03-13T14:15:54.171Z,41.83
2023-03-13T14:16:34.095Z,41.61
2023-03-13T14:18:41.981Z,41.26
2023-03-13T14:19:22.642Z,41.48
2023-03-13T14:20:54.889Z,41.79
2023-03-13T14:21:51.423Z,41.40
2023-03-13T14:23:21.419Z,41.52
2023-03-13T14:23:59.937Z,41.69
2023-03-13T14:24:42.764Z,41.91
2023-03-13T14:25:25.872Z,41.91
2023-03-13T14:26:17.960Z,41.43
2023-03-13T14:26:58.121Z,41.64
2023-03-13T14:28:26.042Z,42.01
2023-03-13T14:29:08.175Z,41.70
2023-03-13T14:30:09.472Z,42.27
2023-03-13T14:31:37.210Z,41.88
2023-03-13T14:33:36.644Z,41.42
2023-03-13T14:35:16.328Z,41.49
2023-03-13T14:35:58.568Z,42.04
2023-03-13T14:37:01.446Z,41.61
2023-03-13T14:38:24.533Z,41.91
2023-03-13T14:39:55.272Z,42.01
2023-03-13T14:40:39.525Z,42.58
2023-03-13T14:43:35.408Z,43.15
2023-03-13T14:44:25.753Z,42.95
2023-03-13T14:45:32.314Z,43.19
2023-03-13T14:46:29.133Z,43.31
2023-03-13T14:47:21.827Z,43.02
2023-03-13T14:48:32.051Z,43.09
2023-03-13T14:49:20.992Z,43.25
2023-03-13T14:50:11.599Z,43.37
2023-03-13T14:51:14.302Z,43.72
2023-03-13T14:52:01.078Z,43.43
2023-03-13T14:53:27.345Z,42.96
2023-03-13T14:54:06.780Z,43.11
2023-03-13T14:55:04.602Z,43.69
2023-03-13T14:56:21.596Z,43.70
2023-03-13T14:57:05.542Z,43.54
2023-03-13T14:58:07.491Z,43.35
2023-03-13T14:59:05.942Z,43.31
2023-03-13T14:59:53.143Z,42.96
2023-03-13T15:00:32.638Z,43.61
2023-03-13T15:01:32.788Z,43.60
2023-03-13T15:02:32.449Z,44.22
2023-03-13T15:03:17.248Z,43.99
2023-03-13T15:04:41.712Z,43.95
2023-03-13T15:05:54.439Z,44.26
2023-03-13T15:07:14.556Z,44.54
2023-03-13T15:07:57.140Z,44.16
2023-03-13T15:09:51.249Z,44.40
2023-03-13T15:11:20.367Z,45.15
2023-03-13T15:12:43.589Z,44.86
2023-03-13T15:13:29.480Z,44.76
2023-03-13T15:14:34.602Z,44.92
2023-03-13T15:15:53.467Z,45.10
2023-03-13T15:16:32.589Z,45.27
2023-03-13T15:17:36.067Z,45.43